Time,TemperatureF,DewpointF,PressureIn,WindDirection,WindDirectionDegrees,WindSpeedMPH,WindSpeedGustMPH,Humidity,HourlyPrecipIn,Conditions,Clouds,dailyrainin,SoftwareType,DateUTC
2013-06-25 00:02:00,56.7,12.4,30.20,East,83,0.0,0.0,17,0.00,,---,0.00,VWS V14.01,2013-06-25 06:02:00,
2013-06-25 00:07:00,56.3,12.1,30.20,South,173,0.0,5.4,17,0.00,,---,0.00,VWS V14.01,2013-06-25 06:07:00,
2013-06-25 00:12:00,55.9,11.8,30.20,East,99,0.0,0.0,17,0.00,,---,0.00,VWS V14.01,2013-06-25 06:12:00,
2013-06-25 00:17:00,55.8,11.6,30.20,East,99,0.0,0.0,17,0.00,,---,0.00,VWS V14.01,2013-06-25 06:17:00,
2013-06-25 00:23:00,55.9,11.8,30.20,SSE,155,0.0,0.0,17,0.00,,---,0.00,VWS V14.01,2013-06-25 06:23:00,
2013-06-25 00:29:00,55.9,11.8,30.20,South,179,0.0,2.7,17,0.00,,---,0.00,VWS V14.01,2013-06-25 06:29:00,
2013-06-25 00:35:00,55.2,12.5,30.20,SSW,205,5.4,6.3,18,0.00,,---,0.00,VWS V14.01,2013-06-25 06:35:00,
2013-06-25 00:41:00,55.0,12.3,30.17,South,174,3.1,3.1,18,0.00,,---,0.00,VWS V14.01,2013-06-25 06:41:00,
2013-06-25 00:46:00,54.9,12.2,30.17,South,171,4.0,5.4,18,0.00,,---,0.00,VWS V14.01,2013-06-25 06:46:00,
2013-06-25 00:52:00,55.2,12.5,30.20,South,175,3.6,5.8,18,0.00,,---,0.00,VWS V14.01,2013-06-25 06:52:00,
2013-06-25 00:57:00,55.8,11.6,30.20,SSW,208,2.2,6.3,17,0.00,,---,0.00,VWS V14.01,2013-06-25 06:57:00,
2013-06-25 01:02:00,55.6,11.5,30.20,South,191,2.7,8.1,17,0.00,,---,0.00,VWS V14.01,2013-06-25 07:02:00,
2013-06-25 01:07:00,55.8,11.6,30.17,WSW,249,4.0,5.8,17,0.00,,---,0.00,VWS V14.01,2013-06-25 07:07:00,
2013-06-25 01:13:00,55.8,11.6,30.17,SSW,211,5.8,8.7,17,0.00,,---,0.00,VWS V14.01,2013-06-25 07:13:00,
2013-06-25 01:18:00,55.2,12.5,30.17,SSW,196,3.6,6.7,18,0.00,,---,0.00,VWS V14.01,2013-06-25 07:18:00,
2013-06-25 01:24:00,55.0,12.3,30.17,WSW,244,5.8,6.3,18,0.00,,---,0.00,VWS V14.01,2013-06-25 07:24:00,
2013-06-25 01:30:00,54.5,11.9,30.17,SW,229,0.0,0.0,18,0.00,,---,0.00,VWS V14.01,2013-06-25 07:30:00,
2013-06-25 01:36:00,54.1,11.6,30.20,SSW,200,0.0,6.3,18,0.00,,---,0.00,VWS V14.01,2013-06-25 07:36:00,
2013-06-25 01:41:00,54.0,11.4,30.20,South,190,4.0,4.0,18,0.00,,---,0.00,VWS V14.01,2013-06-25 07:41:00,
2013-06-25 01:47:00,53.6,11.1,30.20,WSW,240,2.2,4.0,18,0.00,,---,0.00,VWS V14.01,2013-06-25 07:47:00,
2013-06-25 01:52:00,53.4,11.0,30.20,SW,215,2.7,2.7,18,0.00,,---,0.00,VWS V14.01,2013-06-25 07:52:00,
2013-06-25 01:58:00,53.6,11.1,30.20,West,276,0.0,5.8,18,0.00,,---,0.00,VWS V14.01,2013-06-25 07:58:00,
2013-06-25 02:04:00,53.2,10.9,30.20,SW,222,0.0,0.0,18,0.00,,---,0.00,VWS V14.01,2013-06-25 08:04:00,
2013-06-25 02:09:00,53.1,10.7,30.20,SSE,161,2.7,6.3,18,0.00,,---,0.00,VWS V14.01,2013-06-25 08:09:00,
2013-06-25 02:14:00,53.4,11.0,30.20,South,190,5.4,5.8,18,0.00,,---,0.00,VWS V14.01,2013-06-25 08:14:00,
2013-06-25 02:20:00,53.4,11.0,30.20,SSW,194,2.2,7.6,18,0.00,,---,0.00,VWS V14.01,2013-06-25 08:20:00,
2013-06-25 02:25:00,53.1,10.7,30.17,South,191,6.3,6.3,18,0.00,,---,0.00,VWS V14.01,2013-06-25 08:25:00,
2013-06-25 02:30:00,53.1,10.7,30.17,SW,223,2.2,4.9,18,0.00,,---,0.00,VWS V14.01,2013-06-25 08:30:00,
2013-06-25 02:35:00,52.9,10.6,30.17,SW,219,6.3,10.5,18,0.00,,---,0.00,VWS V14.01,2013-06-25 08:35:00,
2013-06-25 02:41:00,52.7,10.4,30.20,South,183,3.1,8.3,18,0.00,,---,0.00,VWS V14.01,2013-06-25 08:41:00,
2013-06-25 02:46:00,53.1,10.7,30.20,SSW,207,8.1,8.1,18,0.00,,---,0.00,VWS V14.01,2013-06-25 08:46:00,
2013-06-25 02:52:00,53.1,10.7,30.20,SW,233,5.8,6.3,18,0.00,,---,0.00,VWS V14.01,2013-06-25 08:52:00,
2013-06-25 02:57:00,52.7,10.4,30.20,SW,236,3.6,5.4,18,0.00,,---,0.00,VWS V14.01,2013-06-25 08:57:00,
2013-06-25 03:03:00,52.5,10.2,30.20,SW,233,5.8,6.3,18,0.00,,---,0.00,VWS V14.01,2013-06-25 09:03:00,
2013-06-25 03:08:00,52.3,10.1,30.20,SW,235,6.3,6.3,18,0.00,,---,0.00,VWS V14.01,2013-06-25 09:08:00,
2013-06-25 03:14:00,52.2,10.0,30.20,SSW,204,0.0,0.0,18,0.00,,---,0.00,VWS V14.01,2013-06-25 09:14:00,
2013-06-25 03:20:00,52.0,9.8,30.20,SE,130,0.0,0.0,18,0.00,,---,0.00,VWS V14.01,2013-06-25 09:20:00,
2013-06-25 03:25:00,51.8,9.7,30.20,ESE,111,0.0,0.0,18,0.00,,---,0.00,VWS V14.01,2013-06-25 09:25:00,
2013-06-25 03:31:00,51.6,10.7,30.20,ESE,111,0.0,0.0,19,0.00,,---,0.00,VWS V14.01,2013-06-25 09:31:00,
2013-06-25 03:37:00,51.4,10.6,30.20,East,90,0.0,0.0,19,0.00,,---,0.00,VWS V14.01,2013-06-25 09:37:00,
2013-06-25 03:43:00,51.3,10.4,30.20,NNE,17,0.0,0.0,19,0.00,,---,0.00,VWS V14.01,2013-06-25 09:43:00,
2013-06-25 03:49:00,51.1,10.3,30.20,NNE,17,0.0,0.0,19,0.00,,---,0.00,VWS V14.01,2013-06-25 09:49:00,
2013-06-25 03:55:00,50.9,10.1,30.20,ENE,77,0.0,0.0,19,0.00,,---,0.00,VWS V14.01,2013-06-25 09:55:00,
2013-06-25 04:00:00,50.9,10.1,30.20,WSW,239,0.0,0.0,19,0.00,,---,0.00,VWS V14.01,2013-06-25 10:00:00,
2013-06-25 04:06:00,50.9,10.1,30.20,WSW,239,0.0,0.0,19,0.00,,---,0.00,VWS V14.01,2013-06-25 10:06:00,
2013-06-25 04:12:00,50.7,10.0,30.20,South,178,0.0,0.0,19,0.00,,---,0.00,VWS V14.01,2013-06-25 10:12:00,
2013-06-25 04:17:00,50.5,9.8,30.20,South,185,0.0,4.9,19,0.00,,---,0.00,VWS V14.01,2013-06-25 10:17:00,
2013-06-25 04:23:00,50.7,10.0,30.20,South,189,2.7,6.3,19,0.00,,---,0.00,VWS V14.01,2013-06-25 10:23:00,
2013-06-25 04:29:00,50.5,9.8,30.20,SSW,198,2.2,4.5,19,0.00,,---,0.00,VWS V14.01,2013-06-25 10:29:00,
2013-06-25 04:35:00,50.2,9.5,30.20,SW,229,0.0,3.6,19,0.00,,---,0.00,VWS V14.01,2013-06-25 10:35:00,
2013-06-25 04:40:00,49.8,9.2,30.20,SSW,204,4.9,4.9,19,0.00,,---,0.00,VWS V14.01,2013-06-25 10:40:00,
2013-06-25 04:46:00,49.8,9.2,30.20,SW,236,0.0,4.0,19,0.00,,---,0.00,VWS V14.01,2013-06-25 10:46:00,
2013-06-25 04:52:00,49.5,8.9,30.20,South,179,0.0,0.0,19,0.00,,---,0.00,VWS V14.01,2013-06-25 10:52:00,
2013-06-25 04:58:00,49.1,8.6,30.20,SSW,212,3.6,3.6,19,0.00,,---,0.00,VWS V14.01,2013-06-25 10:58:00,
2013-06-25 05:04:00,49.1,8.6,30.20,SSE,148,2.7,3.6,19,0.00,,---,0.00,VWS V14.01,2013-06-25 11:04:00,
2013-06-25 05:09:00,49.5,8.9,30.20,SSE,154,2.7,4.0,19,0.00,,---,0.00,VWS V14.01,2013-06-25 11:09:00,
2013-06-25 05:15:00,49.8,9.2,30.20,SW,236,0.0,0.0,19,0.00,,---,0.00,VWS V14.01,2013-06-25 11:15:00,
2013-06-25 05:21:00,49.3,8.8,30.20,SW,225,0.0,0.0,19,0.00,,---,0.00,VWS V14.01,2013-06-25 11:21:00,
2013-06-25 05:27:00,49.1,8.6,30.20,SSW,202,0.0,0.0,19,0.00,,---,0.00,VWS V14.01,2013-06-25 11:27:00,
2013-06-25 05:32:00,48.7,8.3,30.20,South,185,0.0,0.0,19,0.00,,---,0.00,VWS V14.01,2013-06-25 11:32:00,
2013-06-25 05:38:00,48.4,8.0,30.20,South,180,5.8,7.6,19,0.00,,---,0.00,VWS V14.01,2013-06-25 11:38:00,
2013-06-25 05:43:00,47.8,7.6,30.20,South,186,5.4,5.8,19,0.00,,---,0.00,VWS V14.01,2013-06-25 11:43:00,
2013-06-25 05:48:00,48.0,7.7,30.20,SSW,197,3.1,6.3,19,0.00,,---,0.00,VWS V14.01,2013-06-25 11:48:00,
2013-06-25 05:54:00,48.4,8.0,30.20,SSW,198,5.8,8.1,19,0.00,,---,0.00,VWS V14.01,2013-06-25 11:54:00,
2013-06-25 05:59:00,48.0,7.7,30.20,SSW,205,4.0,6.3,19,0.00,,---,0.00,VWS V14.01,2013-06-25 11:59:00,
2013-06-25 06:05:00,48.2,7.9,30.20,South,175,3.6,5.4,19,0.00,,---,0.00,VWS V14.01,2013-06-25 12:05:00,
2013-06-25 06:11:00,48.6,8.2,30.20,SW,236,2.7,4.0,19,0.00,,---,0.00,VWS V14.01,2013-06-25 12:11:00,
2013-06-25 06:16:00,48.2,7.9,30.20,SSW,200,4.0,7.2,19,0.00,,---,0.00,VWS V14.01,2013-06-25 12:16:00,
2013-06-25 06:22:00,47.8,7.6,30.23,WSW,240,0.0,3.1,19,0.00,,---,0.00,VWS V14.01,2013-06-25 12:22:00,
2013-06-25 06:28:00,47.3,7.1,30.23,ESE,110,0.0,0.0,19,0.00,,---,0.00,VWS V14.01,2013-06-25 12:28:00,
2013-06-25 06:33:00,47.5,7.3,30.23,ESE,106,0.0,0.0,19,0.00,,---,0.00,VWS V14.01,2013-06-25 12:33:00,
2013-06-25 06:39:00,47.5,7.3,30.23,East,93,0.0,0.0,19,0.00,,---,0.00,VWS V14.01,2013-06-25 12:39:00,
2013-06-25 06:44:00,47.3,7.1,30.23,East,96,0.0,0.0,19,0.00,,---,0.00,VWS V14.01,2013-06-25 12:44:00,
2013-06-25 06:49:00,47.3,7.1,30.23,South,183,0.0,0.0,19,0.00,,---,0.00,VWS V14.01,2013-06-25 12:49:00,
2013-06-25 06:54:00,47.1,7.0,30.23,South,182,0.0,0.0,19,0.00,,---,0.00,VWS V14.01,2013-06-25 12:54:00,
2013-06-25 07:00:00,47.1,7.0,30.23,South,187,3.6,5.8,19,0.00,,---,0.00,VWS V14.01,2013-06-25 13:00:00,
2013-06-25 07:05:00,47.3,7.1,30.23,South,181,0.0,0.0,19,0.00,,---,0.00,VWS V14.01,2013-06-25 13:05:00,
2013-06-25 07:11:00,47.3,7.1,30.23,SSW,198,0.0,0.0,19,0.00,,---,0.00,VWS V14.01,2013-06-25 13:11:00,
2013-06-25 07:16:00,47.3,7.1,30.23,South,186,0.0,0.0,19,0.00,,---,0.00,VWS V14.01,2013-06-25 13:16:00,
2013-06-25 07:22:00,47.3,7.1,30.23,South,179,0.0,0.0,19,0.00,,---,0.00,VWS V14.01,2013-06-25 13:22:00,
2013-06-25 07:28:00,47.7,7.4,30.23,South,183,0.0,4.0,19,0.00,,---,0.00,VWS V14.01,2013-06-25 13:28:00,
2013-06-25 07:33:00,48.0,7.7,30.23,South,181,0.0,0.0,19,0.00,,---,0.00,VWS V14.01,2013-06-25 13:33:00,
2013-06-25 07:39:00,48.4,8.0,30.23,SSE,162,0.0,0.0,19,0.00,,---,0.00,VWS V14.01,2013-06-25 13:39:00,
2013-06-25 07:44:00,48.9,8.5,30.23,ESE,111,0.0,0.0,19,0.00,,---,0.00,VWS V14.01,2013-06-25 13:44:00,
2013-06-25 07:50:00,50.4,9.7,30.23,ENE,76,0.0,0.0,19,0.00,,---,0.00,VWS V14.01,2013-06-25 13:50:00,
2013-06-25 07:55:00,51.1,10.3,30.23,East,95,0.0,0.0,19,0.00,,---,0.00,VWS V14.01,2013-06-25 13:55:00,
2013-06-25 08:00:00,51.4,10.6,30.23,East,85,0.0,0.0,19,0.00,,---,0.00,VWS V14.01,2013-06-25 14:00:00,
2013-06-25 08:05:00,51.3,10.4,30.23,ESE,113,0.0,0.0,19,0.00,,---,0.00,VWS V14.01,2013-06-25 14:05:00,
2013-06-25 08:11:00,51.1,10.3,30.23,SSE,148,0.0,0.0,19,0.00,,---,0.00,VWS V14.01,2013-06-25 14:11:00,
2013-06-25 08:16:00,51.3,10.4,30.23,SE,145,0.0,0.0,19,0.00,,---,0.00,VWS V14.01,2013-06-25 14:16:00,
2013-06-25 08:22:00,52.5,10.2,30.23,East,99,0.0,0.0,18,0.00,,---,0.00,VWS V14.01,2013-06-25 14:22:00,
2013-06-25 08:28:00,53.1,10.7,30.23,East,89,0.0,0.0,18,0.00,,---,0.00,VWS V14.01,2013-06-25 14:28:00,
2013-06-25 08:34:00,53.4,11.0,30.23,NE,54,0.0,0.0,18,0.00,,---,0.00,VWS V14.01,2013-06-25 14:34:00,
2013-06-25 08:40:00,53.4,11.0,30.23,SSE,147,2.7,2.7,18,0.00,,---,0.00,VWS V14.01,2013-06-25 14:40:00,
2013-06-25 08:45:00,53.6,11.1,30.23,SE,141,0.0,0.0,18,0.00,,---,0.00,VWS V14.01,2013-06-25 14:45:00,
2013-06-25 08:50:00,53.6,11.1,30.23,SSE,156,0.0,0.0,18,0.00,,---,0.00,VWS V14.01,2013-06-25 14:50:00,
2013-06-25 08:55:00,53.6,11.1,30.23,ENE,60,0.0,3.1,18,0.00,,---,0.00,VWS V14.01,2013-06-25 14:55:00,
2013-06-25 09:01:00,53.8,11.3,30.23,ENE,63,0.0,0.0,18,0.00,,---,0.00,VWS V14.01,2013-06-25 15:01:00,
2013-06-25 09:07:00,54.9,12.2,30.23,ENE,75,5.4,5.4,18,0.00,,---,0.00,VWS V14.01,2013-06-25 15:07:00,
2013-06-25 09:12:00,55.6,11.5,30.23,ENE,69,3.1,5.4,17,0.00,,---,0.00,VWS V14.01,2013-06-25 15:12:00,
2013-06-25 09:18:00,56.1,11.9,30.23,East,95,0.0,4.0,17,0.00,,---,0.00,VWS V14.01,2013-06-25 15:18:00,
2013-06-25 09:24:00,56.5,12.2,30.23,NNE,21,4.0,6.3,17,0.00,,---,0.00,VWS V14.01,2013-06-25 15:24:00,
2013-06-25 09:29:00,57.0,12.7,30.23,NE,41,0.0,3.6,17,0.00,,---,0.00,VWS V14.01,2013-06-25 15:29:00,
2013-06-25 09:35:00,57.4,12.9,30.23,NE,48,4.0,5.8,17,0.00,,---,0.00,VWS V14.01,2013-06-25 15:35:00,
2013-06-25 09:41:00,57.9,13.4,30.23,WSW,243,7.6,8.1,17,0.00,,---,0.00,VWS V14.01,2013-06-25 15:41:00,
2013-06-25 09:47:00,58.6,14.0,30.23,NE,46,0.0,7.6,17,0.00,,---,0.00,VWS V14.01,2013-06-25 15:47:00,
2013-06-25 09:52:00,59.2,14.4,30.23,North,4,3.6,5.8,17,0.00,,---,0.00,VWS V14.01,2013-06-25 15:52:00,
2013-06-25 09:58:00,59.7,14.9,30.23,SSW,196,2.7,6.3,17,0.00,,---,0.00,VWS V14.01,2013-06-25 15:58:00,
2013-06-25 10:04:00,60.3,15.3,30.23,NNW,332,0.0,2.7,17,0.00,,---,0.00,VWS V14.01,2013-06-25 16:04:00,
2013-06-25 10:10:00,60.4,15.4,30.23,NNW,329,3.1,8.3,17,0.00,,---,0.00,VWS V14.01,2013-06-25 16:10:00,
2013-06-25 10:15:00,60.8,14.4,30.23,South,182,3.1,10.1,16,0.00,,---,0.00,VWS V14.01,2013-06-25 16:15:00,
2013-06-25 10:20:00,61.3,14.8,30.23,West,281,8.1,8.1,16,0.00,,---,0.00,VWS V14.01,2013-06-25 16:20:00,
2013-06-25 10:25:00,61.7,15.1,30.20,NE,55,0.0,2.2,16,0.00,,---,0.00,VWS V14.01,2013-06-25 16:25:00,
2013-06-25 10:30:00,62.1,15.4,30.20,SW,219,4.0,5.4,16,0.00,,---,0.00,VWS V14.01,2013-06-25 16:30:00,
2013-06-25 10:35:00,62.6,15.8,30.20,South,181,4.0,4.9,16,0.00,,---,0.00,VWS V14.01,2013-06-25 16:35:00,
2013-06-25 10:40:00,63.0,16.1,30.23,West,259,0.0,2.2,16,0.00,,---,0.00,VWS V14.01,2013-06-25 16:40:00,
2013-06-25 10:45:00,63.0,16.1,30.23,SSW,201,0.0,0.0,16,0.00,,---,0.00,VWS V14.01,2013-06-25 16:45:00,
2013-06-25 10:50:00,63.3,16.4,30.23,West,264,4.9,7.2,16,0.00,,---,0.00,VWS V14.01,2013-06-25 16:50:00,
2013-06-25 10:55:00,63.7,16.7,30.23,ENE,66,0.0,0.0,16,0.00,,---,0.00,VWS V14.01,2013-06-25 16:55:00,
2013-06-25 11:01:00,64.2,17.1,30.23,NW,311,4.0,4.9,16,0.00,,---,0.00,VWS V14.01,2013-06-25 17:01:00,
2013-06-25 11:06:00,64.6,15.9,30.23,WNW,295,5.4,5.4,15,0.00,,---,0.00,VWS V14.01,2013-06-25 17:06:00,
2013-06-25 11:12:00,65.1,16.4,30.23,NW,316,8.3,8.3,15,0.00,,---,0.00,VWS V14.01,2013-06-25 17:12:00,
2013-06-25 11:17:00,65.8,16.9,30.23,West,264,6.3,8.3,15,0.00,,---,0.00,VWS V14.01,2013-06-25 17:17:00,
2013-06-25 11:23:00,66.4,17.4,30.23,North,353,0.0,4.0,15,0.00,,---,0.00,VWS V14.01,2013-06-25 17:23:00,
2013-06-25 11:29:00,66.9,17.8,30.23,East,94,0.0,6.3,15,0.00,,---,0.00,VWS V14.01,2013-06-25 17:29:00,
2013-06-25 11:34:00,67.5,18.2,30.23,SSW,206,6.3,10.5,15,0.00,,---,0.00,VWS V14.01,2013-06-25 17:34:00,
2013-06-25 11:40:00,68.2,18.8,30.23,SW,225,5.8,8.1,15,0.00,,---,0.00,VWS V14.01,2013-06-25 17:40:00,
2013-06-25 11:46:00,68.9,19.4,30.23,SSW,209,6.3,8.3,15,0.00,,---,0.00,VWS V14.01,2013-06-25 17:46:00,
2013-06-25 11:52:00,69.3,19.7,30.23,West,264,7.2,11.9,15,0.00,,---,0.00,VWS V14.01,2013-06-25 17:52:00,
2013-06-25 11:57:00,69.4,19.8,30.23,West,265,2.7,13.2,15,0.00,,---,0.00,VWS V14.01,2013-06-25 17:57:00,
2013-06-25 12:02:00,69.8,18.5,30.23,West,267,5.8,11.9,14,0.00,,---,0.00,VWS V14.01,2013-06-25 18:02:00,
2013-06-25 12:08:00,70.3,18.9,30.23,SSW,211,4.9,10.1,14,0.00,,---,0.00,VWS V14.01,2013-06-25 18:08:00,
2013-06-25 12:13:00,70.3,18.9,30.23,West,279,5.4,11.0,14,0.00,,---,0.00,VWS V14.01,2013-06-25 18:13:00,
2013-06-25 12:19:00,70.5,19.1,30.23,WNW,298,10.1,10.1,14,0.00,,---,0.00,VWS V14.01,2013-06-25 18:19:00,
2013-06-25 12:24:00,70.9,19.4,30.23,SW,219,9.6,12.3,14,0.00,,---,0.00,VWS V14.01,2013-06-25 18:24:00,
2013-06-25 12:30:00,71.1,19.5,30.23,WNW,283,3.6,10.1,14,0.00,,---,0.00,VWS V14.01,2013-06-25 18:30:00,
2013-06-25 12:35:00,71.4,19.8,30.23,SW,222,4.0,8.7,14,0.00,,---,0.00,VWS V14.01,2013-06-25 18:35:00,
2013-06-25 12:41:00,72.0,20.2,30.23,SW,220,10.5,15.0,14,0.00,,---,0.00,VWS V14.01,2013-06-25 18:41:00,
2013-06-25 12:46:00,72.0,20.2,30.23,West,263,8.3,8.3,14,0.00,,---,0.00,VWS V14.01,2013-06-25 18:46:00,
2013-06-25 12:51:00,72.0,20.2,30.23,WNW,293,5.8,12.3,14,0.00,,---,0.00,VWS V14.01,2013-06-25 18:51:00,
2013-06-25 12:57:00,72.1,20.4,30.23,WSW,248,4.0,10.1,14,0.00,,---,0.00,VWS V14.01,2013-06-25 18:57:00,
2013-06-25 13:03:00,72.5,20.6,30.23,West,261,8.1,11.0,14,0.00,,---,0.00,VWS V14.01,2013-06-25 19:03:00,
2013-06-25 13:09:00,72.9,20.9,30.23,West,277,4.0,10.1,14,0.00,,---,0.00,VWS V14.01,2013-06-25 19:09:00,
2013-06-25 13:15:00,73.8,19.9,30.23,SW,235,6.3,13.2,13,0.00,,---,0.00,VWS V14.01,2013-06-25 19:15:00,
2013-06-25 13:20:00,74.1,20.2,30.23,West,260,2.2,6.7,13,0.00,,---,0.00,VWS V14.01,2013-06-25 19:20:00,
2013-06-25 13:26:00,74.5,20.5,30.23,South,188,6.3,8.1,13,0.00,,---,0.00,VWS V14.01,2013-06-25 19:26:00,
2013-06-25 13:32:00,75.2,21.0,30.23,West,265,4.0,8.3,13,0.00,,---,0.00,VWS V14.01,2013-06-25 19:32:00,
2013-06-25 13:37:00,76.1,25.1,30.23,NW,324,3.6,7.6,15,0.00,,---,0.00,VWS V14.01,2013-06-25 19:37:00,
2013-06-25 13:43:00,77.0,25.9,30.23,WNW,297,7.6,8.1,15,0.00,,---,0.00,VWS V14.01,2013-06-25 19:43:00,
2013-06-25 13:48:00,77.7,26.4,30.23,SW,221,5.4,8.3,15,0.00,,---,0.00,VWS V14.01,2013-06-25 19:48:00,
2013-06-25 13:54:00,77.5,26.3,30.23,NNW,333,5.8,13.2,15,0.00,,---,0.00,VWS V14.01,2013-06-25 19:54:00,
2013-06-25 14:00:00,77.7,26.4,30.23,NW,316,5.8,5.8,15,0.00,,---,0.00,VWS V14.01,2013-06-25 20:00:00,
2013-06-25 14:05:00,77.4,26.1,30.23,WNW,284,14.1,14.1,15,0.00,,---,0.00,VWS V14.01,2013-06-25 20:05:00,
2013-06-25 14:10:00,77.4,26.1,30.23,WSW,246,6.3,8.1,15,0.00,,---,0.00,VWS V14.01,2013-06-25 20:10:00,
2013-06-25 14:15:00,77.0,25.9,30.23,SW,214,8.1,8.7,15,0.00,,---,0.00,VWS V14.01,2013-06-25 20:15:00,
2013-06-25 14:21:00,77.4,26.1,30.23,WNW,283,4.0,10.5,15,0.00,,---,0.00,VWS V14.01,2013-06-25 20:21:00,
2013-06-25 14:26:00,78.3,26.9,30.23,SW,230,8.1,10.1,15,0.00,,---,0.00,VWS V14.01,2013-06-25 20:26:00,
2013-06-25 14:32:00,79.0,27.4,30.23,SE,133,5.8,13.2,15,0.00,,---,0.00,VWS V14.01,2013-06-25 20:32:00,
2013-06-25 14:37:00,79.5,27.9,30.23,West,270,10.5,13.2,15,0.00,,---,0.00,VWS V14.01,2013-06-25 20:37:00,
2013-06-25 14:43:00,79.9,28.1,30.23,WNW,290,3.6,8.1,15,0.00,,---,0.00,VWS V14.01,2013-06-25 20:43:00,
2013-06-25 14:48:00,81.0,27.3,30.23,North,0,5.8,11.4,14,0.00,,---,0.00,VWS V14.01,2013-06-25 20:48:00,
2013-06-25 14:54:00,82.0,28.2,30.23,NW,319,3.1,11.0,14,0.00,,---,0.00,VWS V14.01,2013-06-25 20:54:00,
2013-06-25 15:00:00,82.9,28.9,30.23,WNW,292,5.4,5.4,14,0.00,,---,0.00,VWS V14.01,2013-06-25 21:00:00,
2013-06-25 15:05:00,82.6,28.6,30.23,SW,224,5.8,17.9,14,0.00,,---,0.00,VWS V14.01,2013-06-25 21:05:00,
2013-06-25 15:11:00,82.4,28.5,30.23,South,171,4.0,11.9,14,0.00,,---,0.00,VWS V14.01,2013-06-25 21:11:00,
2013-06-25 15:17:00,82.6,28.6,30.23,ESE,122,3.1,5.8,14,0.00,,---,0.00,VWS V14.01,2013-06-25 21:17:00,
2013-06-25 15:22:00,83.1,29.0,30.23,SW,236,7.2,8.3,14,0.00,,---,0.00,VWS V14.01,2013-06-25 21:22:00,
2013-06-25 15:27:00,83.1,29.0,30.23,NNW,345,7.6,7.6,14,0.00,,---,0.00,VWS V14.01,2013-06-25 21:27:00,
2013-06-25 15:32:00,83.7,29.5,30.23,WSW,237,2.2,8.3,14,0.00,,---,0.00,VWS V14.01,2013-06-25 21:32:00,
2013-06-25 15:38:00,84.0,29.8,30.23,NE,36,3.1,5.8,14,0.00,,---,0.00,VWS V14.01,2013-06-25 21:38:00,
2013-06-25 15:43:00,84.7,28.5,30.23,NW,324,6.3,11.0,13,0.00,,---,0.00,VWS V14.01,2013-06-25 21:43:00,
2013-06-25 15:49:00,84.4,28.2,30.23,NE,37,4.0,8.1,13,0.00,,---,0.00,VWS V14.01,2013-06-25 21:49:00,
2013-06-25 15:54:00,84.9,28.6,30.23,East,79,3.1,5.8,13,0.00,,---,0.00,VWS V14.01,2013-06-25 21:54:00,
2013-06-25 15:59:00,84.9,28.6,30.23,West,263,3.6,12.3,13,0.00,,---,0.00,VWS V14.01,2013-06-25 21:59:00,
2013-06-25 16:05:00,84.9,28.6,30.23,North,350,7.6,8.3,13,0.00,,---,0.00,VWS V14.01,2013-06-25 22:05:00,
2013-06-25 16:11:00,85.1,28.8,30.23,NNW,328,4.0,10.5,13,0.00,,---,0.00,VWS V14.01,2013-06-25 22:11:00,
2013-06-25 16:16:00,84.9,28.6,30.23,NNE,20,3.6,10.1,13,0.00,,---,0.00,VWS V14.01,2013-06-25 22:16:00,
2013-06-25 16:21:00,84.9,28.6,30.23,North,350,3.6,8.1,13,0.00,,---,0.00,VWS V14.01,2013-06-25 22:21:00,
2013-06-25 16:26:00,85.1,28.8,30.23,WNW,298,4.0,12.8,13,0.00,,---,0.00,VWS V14.01,2013-06-25 22:26:00,
2013-06-25 16:32:00,84.9,28.6,30.23,West,262,8.1,11.4,13,0.00,,---,0.00,VWS V14.01,2013-06-25 22:32:00,
2013-06-25 16:38:00,84.2,28.1,30.23,SW,234,4.9,8.1,13,0.00,,---,0.00,VWS V14.01,2013-06-25 22:38:00,
2013-06-25 16:43:00,84.2,28.1,30.23,SE,146,3.1,8.3,13,0.00,,---,0.00,VWS V14.01,2013-06-25 22:43:00,
2013-06-25 16:49:00,83.8,29.6,30.23,West,270,5.8,8.1,14,0.00,,---,0.00,VWS V14.01,2013-06-25 22:49:00,
2013-06-25 16:54:00,84.2,28.1,30.23,West,281,10.5,10.5,13,0.00,,---,0.00,VWS V14.01,2013-06-25 22:54:00,
2013-06-25 17:00:00,84.4,28.2,30.23,NW,322,0.0,6.7,13,0.00,,---,0.00,VWS V14.01,2013-06-25 23:00:00,
2013-06-25 17:05:00,84.9,28.6,30.23,WNW,296,8.1,8.3,13,0.00,,---,0.00,VWS V14.01,2013-06-25 23:05:00,
2013-06-25 17:10:00,84.7,28.5,30.23,SSE,150,5.8,12.3,13,0.00,,---,0.00,VWS V14.01,2013-06-25 23:10:00,
2013-06-25 17:16:00,83.7,29.5,30.23,SSW,208,5.4,7.6,14,0.00,,---,0.00,VWS V14.01,2013-06-25 23:16:00,
2013-06-25 17:21:00,83.1,29.0,30.23,SSW,209,7.6,10.1,14,0.00,,---,0.00,VWS V14.01,2013-06-25 23:21:00,
2013-06-25 17:26:00,82.8,28.8,30.23,WSW,246,5.4,6.3,14,0.00,,---,0.00,VWS V14.01,2013-06-25 23:26:00,
2013-06-25 17:31:00,83.1,29.0,30.23,NNE,32,2.7,4.9,14,0.00,,---,0.00,VWS V14.01,2013-06-25 23:31:00,
2013-06-25 17:36:00,83.8,29.6,30.23,NNW,338,3.1,4.0,14,0.00,,---,0.00,VWS V14.01,2013-06-25 23:36:00,
2013-06-25 17:41:00,83.8,29.6,30.23,WNW,286,3.1,11.0,14,0.00,,---,0.00,VWS V14.01,2013-06-25 23:41:00,
2013-06-25 17:47:00,83.5,29.3,30.23,WNW,302,0.0,7.6,14,0.00,,---,0.00,VWS V14.01,2013-06-25 23:47:00,
2013-06-25 17:52:00,83.8,29.6,30.23,NW,323,2.7,6.3,14,0.00,,---,0.00,VWS V14.01,2013-06-25 23:52:00,
2013-06-25 17:57:00,83.3,29.2,30.23,West,273,9.6,10.1,14,0.00,,---,0.00,VWS V14.01,2013-06-25 23:57:00,
2013-06-25 18:03:00,82.9,28.9,30.23,North,0,5.4,6.3,14,0.00,,---,0.00,VWS V14.01,2013-06-26 00:03:00,
2013-06-25 18:09:00,83.1,29.0,30.23,SSW,192,8.1,10.5,14,0.00,,---,0.00,VWS V14.01,2013-06-26 00:09:00,
2013-06-25 18:14:00,82.2,28.3,30.23,NW,316,5.4,5.4,14,0.00,,---,0.00,VWS V14.01,2013-06-26 00:14:00,
2013-06-25 18:19:00,82.4,28.5,30.23,SW,234,2.7,5.4,14,0.00,,---,0.00,VWS V14.01,2013-06-26 00:19:00,
2013-06-25 18:24:00,82.6,28.6,30.23,NNW,342,0.0,8.1,14,0.00,,---,0.00,VWS V14.01,2013-06-26 00:24:00,
2013-06-25 18:29:00,82.6,28.6,30.23,SW,234,2.7,8.3,14,0.00,,---,0.00,VWS V14.01,2013-06-26 00:29:00,
2013-06-25 18:34:00,81.9,28.0,30.23,NNW,332,4.0,6.3,14,0.00,,---,0.00,VWS V14.01,2013-06-26 00:34:00,
2013-06-25 18:39:00,81.9,28.0,30.23,NW,312,3.1,4.0,14,0.00,,---,0.00,VWS V14.01,2013-06-26 00:39:00,
2013-06-25 18:45:00,82.2,28.3,30.23,West,262,3.1,5.4,14,0.00,,---,0.00,VWS V14.01,2013-06-26 00:45:00,
2013-06-25 18:51:00,81.5,27.8,30.26,West,270,8.1,8.1,14,0.00,,---,0.00,VWS V14.01,2013-06-26 00:51:00,
2013-06-25 18:56:00,80.6,27.0,30.26,West,264,0.0,7.6,14,0.00,,---,0.00,VWS V14.01,2013-06-26 00:56:00,
2013-06-25 19:02:00,80.2,28.4,30.26,West,268,5.4,8.7,15,0.00,,---,0.00,VWS V14.01,2013-06-26 01:02:00,
2013-06-25 19:07:00,79.9,28.1,30.26,NNW,336,0.0,4.0,15,0.00,,---,0.00,VWS V14.01,2013-06-26 01:07:00,
2013-06-25 19:13:00,79.7,28.0,30.26,WNW,282,5.8,8.3,15,0.00,,---,0.00,VWS V14.01,2013-06-26 01:13:00,
2013-06-25 19:19:00,78.6,27.1,30.26,WNW,284,8.1,8.3,15,0.00,,---,0.00,VWS V14.01,2013-06-26 01:19:00,
2013-06-25 19:24:00,78.3,26.9,30.26,WNW,287,3.6,8.1,15,0.00,,---,0.00,VWS V14.01,2013-06-26 01:24:00,
2013-06-25 19:30:00,78.1,26.7,30.26,WSW,247,7.6,7.6,15,0.00,,---,0.00,VWS V14.01,2013-06-26 01:30:00,
2013-06-25 19:36:00,77.7,26.4,30.26,NNW,339,0.0,0.0,15,0.00,,---,0.00,VWS V14.01,2013-06-26 01:36:00,
2013-06-25 19:41:00,77.7,26.4,30.26,WNW,285,0.0,0.0,15,0.00,,---,0.00,VWS V14.01,2013-06-26 01:41:00,
2013-06-25 19:47:00,77.0,25.9,30.26,West,281,3.1,5.4,15,0.00,,---,0.00,VWS V14.01,2013-06-26 01:47:00,
2013-06-25 19:52:00,76.3,25.3,30.26,WSW,256,4.0,4.0,15,0.00,,---,0.00,VWS V14.01,2013-06-26 01:52:00,
2013-06-25 19:58:00,75.6,24.7,30.26,SSW,202,3.6,6.7,15,0.00,,---,0.00,VWS V14.01,2013-06-26 01:58:00,
2013-06-25 20:03:00,74.5,20.5,30.26,SSW,201,5.4,8.7,13,0.00,,---,0.00,VWS V14.01,2013-06-26 02:03:00,
2013-06-25 20:09:00,73.6,19.8,30.29,SW,227,7.6,10.1,13,0.00,,---,0.00,VWS V14.01,2013-06-26 02:09:00,
2013-06-25 20:15:00,72.7,20.8,30.29,SW,223,3.6,6.3,14,0.00,,---,0.00,VWS V14.01,2013-06-26 02:15:00,
2013-06-25 20:20:00,72.5,20.6,30.29,SSE,159,0.0,0.0,14,0.00,,---,0.00,VWS V14.01,2013-06-26 02:20:00,
2013-06-25 20:26:00,72.3,20.5,30.29,South,173,0.0,5.4,14,0.00,,---,0.00,VWS V14.01,2013-06-26 02:26:00,
2013-06-25 20:31:00,72.0,20.2,30.29,SW,235,0.0,2.7,14,0.00,,---,0.00,VWS V14.01,2013-06-26 02:31:00,
2013-06-25 20:36:00,71.6,19.9,30.29,WNW,291,0.0,5.4,14,0.00,,---,0.00,VWS V14.01,2013-06-26 02:36:00,
2013-06-25 20:41:00,71.2,19.6,30.29,WNW,301,5.4,5.8,14,0.00,,---,0.00,VWS V14.01,2013-06-26 02:41:00,
2013-06-25 20:47:00,70.7,19.2,30.29,South,170,3.6,6.3,14,0.00,,---,0.00,VWS V14.01,2013-06-26 02:47:00,
2013-06-25 20:53:00,70.3,18.9,30.29,South,190,0.0,0.0,14,0.00,,---,0.00,VWS V14.01,2013-06-26 02:53:00,
2013-06-25 20:58:00,70.0,18.6,30.29,SSE,166,3.1,4.0,14,0.00,,---,0.00,VWS V14.01,2013-06-26 02:58:00,
2013-06-25 21:04:00,69.6,20.0,30.29,SSW,192,5.4,7.6,15,0.00,,---,0.00,VWS V14.01,2013-06-26 03:04:00,
2013-06-25 21:09:00,69.3,19.7,30.29,South,186,5.8,5.8,15,0.00,,---,0.00,VWS V14.01,2013-06-26 03:09:00,
2013-06-25 21:15:00,68.7,19.2,30.29,South,180,5.8,6.3,15,0.00,,---,0.00,VWS V14.01,2013-06-26 03:15:00,
2013-06-25 21:20:00,68.5,19.1,30.29,SSW,212,5.8,7.6,15,0.00,,---,0.00,VWS V14.01,2013-06-26 03:20:00,
2013-06-25 21:25:00,68.4,19.0,30.29,SW,234,5.8,7.6,15,0.00,,---,0.00,VWS V14.01,2013-06-26 03:25:00,
2013-06-25 21:30:00,68.2,18.8,30.29,SSE,167,0.0,5.8,15,0.00,,---,0.00,VWS V14.01,2013-06-26 03:30:00,
2013-06-25 21:36:00,68.0,18.7,30.29,South,179,0.0,0.0,15,0.00,,---,0.00,VWS V14.01,2013-06-26 03:36:00,
2013-06-25 21:42:00,67.8,18.5,30.29,SSW,196,0.0,3.6,15,0.00,,---,0.00,VWS V14.01,2013-06-26 03:42:00,
2013-06-25 21:46:00,67.5,18.2,30.29,SW,227,0.0,0.0,15,0.00,,---,0.00,VWS V14.01,2013-06-26 03:46:00,
2013-06-25 21:52:00,67.3,18.1,30.29,SW,227,0.0,0.0,15,0.00,,---,0.00,VWS V14.01,2013-06-26 03:52:00,
2013-06-25 21:57:00,67.1,17.9,30.29,East,86,0.0,0.0,15,0.00,,---,0.00,VWS V14.01,2013-06-26 03:57:00,
2013-06-25 22:01:00,66.9,17.8,30.29,ENE,57,0.0,0.0,15,0.00,,---,0.00,VWS V14.01,2013-06-26 04:01:00,
2013-06-25 22:04:00,66.7,17.6,30.29,East,91,3.6,4.0,15,0.00,,---,0.00,VWS V14.01,2013-06-26 04:04:00,
2013-06-25 22:05:00,66.6,17.5,30.29,East,88,0.0,4.0,15,0.00,,---,0.00,VWS V14.01,2013-06-26 04:05:00,
2013-06-25 22:06:00,66.4,17.4,30.32,East,90,0.0,3.6,15,0.00,,---,0.00,VWS V14.01,2013-06-26 04:06:00,
2013-06-25 22:10:00,66.2,17.2,30.32,SSE,168,0.0,0.0,15,0.00,,---,0.00,VWS V14.01,2013-06-26 04:10:00,
2013-06-25 22:15:00,65.8,16.9,30.32,SSE,160,0.0,0.0,15,0.00,,---,0.00,VWS V14.01,2013-06-26 04:15:00,
2013-06-25 22:21:00,65.8,16.9,30.32,ESE,118,0.0,0.0,15,0.00,,---,0.00,VWS V14.01,2013-06-26 04:21:00,
2013-06-25 22:27:00,65.5,16.6,30.32,SSW,209,5.8,5.8,15,0.00,,---,0.00,VWS V14.01,2013-06-26 04:27:00,
2013-06-25 22:32:00,64.9,16.2,30.32,SW,227,0.0,0.0,15,0.00,,---,0.00,VWS V14.01,2013-06-26 04:32:00,
2013-06-25 22:38:00,64.6,15.9,30.32,South,174,0.0,0.0,15,0.00,,---,0.00,VWS V14.01,2013-06-26 04:38:00,
2013-06-25 22:43:00,64.4,15.8,30.32,South,189,0.0,0.0,15,0.00,,---,0.00,VWS V14.01,2013-06-26 04:43:00,
2013-06-25 22:49:00,64.4,15.8,30.32,South,189,0.0,0.0,15,0.00,,---,0.00,VWS V14.01,2013-06-26 04:49:00,
2013-06-25 22:54:00,64.4,15.8,30.32,South,189,0.0,0.0,15,0.00,,---,0.00,VWS V14.01,2013-06-26 04:54:00,
2013-06-25 23:00:00,64.0,17.0,30.32,South,189,0.0,0.0,16,0.00,,---,0.00,VWS V14.01,2013-06-26 05:00:00,
2013-06-25 23:06:00,63.9,16.8,30.32,ESE,122,0.0,0.0,16,0.00,,---,0.00,VWS V14.01,2013-06-26 05:06:00,
2013-06-25 23:12:00,63.5,16.5,30.32,ESE,122,0.0,0.0,16,0.00,,---,0.00,VWS V14.01,2013-06-26 05:12:00,
2013-06-25 23:18:00,63.1,16.2,30.32,ESE,122,0.0,0.0,16,0.00,,---,0.00,VWS V14.01,2013-06-26 05:18:00,
2013-06-25 23:24:00,62.6,15.8,30.32,SE,124,0.0,0.0,16,0.00,,---,0.00,VWS V14.01,2013-06-26 05:24:00,
2013-06-25 23:29:00,62.2,15.5,30.32,SE,140,0.0,0.0,16,0.00,,---,0.00,VWS V14.01,2013-06-26 05:29:00,
2013-06-25 23:35:00,61.9,15.2,30.32,SSE,163,0.0,0.0,16,0.00,,---,0.00,VWS V14.01,2013-06-26 05:35:00,
2013-06-25 23:40:00,61.7,15.1,30.32,South,178,0.0,0.0,16,0.00,,---,0.00,VWS V14.01,2013-06-26 05:40:00,
2013-06-25 23:46:00,61.0,14.5,30.32,WSW,241,0.0,0.0,16,0.00,,---,0.00,VWS V14.01,2013-06-26 05:46:00,
2013-06-25 23:52:00,60.1,15.1,30.32,WSW,241,0.0,0.0,17,0.00,,---,0.00,VWS V14.01,2013-06-26 05:52:00,
2013-06-25 23:57:00,59.7,14.9,30.32,South,179,0.0,0.0,17,0.00,,---,0.00,VWS V14.01,2013-06-26 05:57:00,